Time;durP1;ratioP1;P1;durP2;ratioP2;P2;SDS_P1;SDS_P2;PMS_P1;PMS_P2;Temp;Humidity;BMP_temperature;BMP_pressure;BME280_temperature;BME280_humidity;BME280_pressure;Samples;Min_cycle;Max_cycle;Signal;HPM_P1;HPM_P2
2022/08/22 00:00:10;;;;;;;17.85;4.30;;;;;;;20.33;59.41;101147.00;5110944;27;20055;-54
2022/08/22 00:02:51;;;;;;;16.35;4.45;;;;;;;20.24;59.05;101147.44;5110182;28;20044;-53
2022/08/22 00:05:47;;;;;;;15.43;3.72;;;;;;;20.20;59.31;101149.72;5110597;28;20127;-54
2022/08/22 00:08:22;;;;;;;20.75;4.25;;;;;;;20.24;59.60;101150.97;5111181;28;20123;-53
2022/08/22 00:11:19;;;;;;;12.52;3.67;;;;;;;20.14;59.33;101150.56;5110706;28;20448;-53
2022/08/22 00:14:03;;;;;;;17.38;4.50;;;;;;;20.12;59.53;101144.56;5110702;28;20127;-52
2022/08/22 00:17:10;;;;;;;17.60;4.30;;;;;;;20.08;60.33;101146.00;5110991;28;20044;-53
2022/08/22 00:20:06;;;;;;;17.02;3.85;;;;;;;20.12;60.37;101141.88;5110336;28;20051;-53
2022/08/22 00:25:32;;;;;;;15.82;4.30;;;;;;;20.02;60.77;101139.56;5111333;27;20136;-51
2022/08/22 00:28:06;;;;;;;13.63;3.92;;;;;;;20.02;60.99;101142.25;5107632;28;20373;-52
2022/08/22 00:30:42;;;;;;;15.65;3.97;;;;;;;20.01;62.00;101142.47;5110300;28;20048;-54
2022/08/22 00:33:21;;;;;;;16.48;3.85;;;;;;;19.94;62.37;101134.41;5107491;28;20515;-53
2022/08/22 00:35:57;;;;;;;17.63;4.22;;;;;;;19.92;62.48;101148.06;5111238;28;20040;-53
2022/08/22 00:38:32;;;;;;;14.18;3.80;;;;;;;19.87;61.94;101149.72;5111101;28;20043;-54
2022/08/22 00:41:09;;;;;;;15.05;4.20;;;;;;;19.77;62.74;101147.41;5110996;28;20109;-53
2022/08/22 00:49:52;;;;;;;14.05;3.72;;;;;;;19.70;62.46;101155.47;5111019;27;20351;-53
2022/08/22 00:52:53;;;;;;;14.38;3.30;;;;;;;19.72;62.53;101153.41;5110802;28;20101;-54
2022/08/22 00:55:47;;;;;;;20.35;3.63;;;;;;;19.72;62.22;101152.56;5111237;28;20504;-53
2022/08/22 00:58:40;;;;;;;15.55;4.15;;;;;;;19.72;63.12;101152.56;5110895;28;20446;-51
2022/08/22 01:01:10;;;;;;;16.13;4.28;;;;;;;19.62;63.88;101136.81;5110218;28;20075;-53
2022/08/22 01:06:54;;;;;;;15.35;3.88;;;;;;;19.51;64.34;101149.00;5111031;27;20343;-52
2022/08/22 01:10:02;;;;;;;16.65;4.20;;;;;;;19.43;64.25;101145.66;5110784;28;20048;-53
2022/08/22 01:13:00;;;;;;;13.15;4.50;;;;;;;19.29;65.28;101147.50;5111160;28;20063;-54
2022/08/22 01:15:32;;;;;;;19.50;3.80;;;;;;;19.29;65.65;101139.44;5110848;28;20462;-52
2022/08/22 01:24:13;;;;;;;20.27;4.50;;;;;;;19.13;66.12;101141.41;4985711;27;20362;-53
2022/08/22 01:27:19;;;;;;;19.67;4.13;;;;;;;19.08;66.85;101140.38;5111054;28;20044;-52
2022/08/22 01:30:15;;;;;;;14.82;4.63;;;;;;;18.97;67.19;101144.47;5110511;28;20439;-52
2022/08/22 01:33:19;;;;;;;14.75;4.75;;;;;;;18.98;67.28;101138.88;5109541;28;20528;-53
2022/08/22 01:36:06;;;;;;;14.68;5.00;;;;;;;18.87;67.86;101139.47;5110848;28;20512;-53
2022/08/22 01:39:12;;;;;;;15.25;5.13;;;;;;;18.86;68.17;101140.47;5110585;28;20448;-57
2022/08/22 01:42:14;;;;;;;21.38;5.15;;;;;;;18.82;68.26;101146.47;5110611;28;20089;-51
2022/08/22 01:47:25;;;;;;;14.35;4.38;;;;;;;18.87;68.56;101141.31;5110965;27;20383;-53
2022/08/22 01:50:01;;;;;;;16.17;4.30;;;;;;;18.79;68.67;101136.88;5110737;28;20074;-53
2022/08/22 01:52:41;;;;;;;21.05;5.40;;;;;;;18.76;68.52;101137.31;5111202;28;20412;-53
2022/08/22 01:55:35;;;;;;;19.17;4.63;;;;;;;18.75;68.97;101128.41;5111206;28;20051;-53
2022/08/22 01:58:15;;;;;;;19.90;4.93;;;;;;;18.72;68.61;101136.03;5110829;28;20044;-53
2022/08/22 02:01:15;;;;;;;16.75;4.53;;;;;;;18.71;68.43;101134.38;5110631;28;20044;-53
2022/08/22 02:03:57;;;;;;;11.85;4.50;;;;;;;18.61;69.23;101132.88;5110080;28;20055;-53
2022/08/22 02:06:38;;;;;;;15.55;4.90;;;;;;;18.50;69.53;101130.75;5110974;28;20044;-52
2022/08/22 02:09:11;;;;;;;17.80;5.45;;;;;;;18.51;70.02;101128.88;5109086;28;20040;-52
2022/08/22 02:11:49;;;;;;;15.27;5.13;;;;;;;18.50;69.57;101128.06;5110687;28;20530;-52
2022/08/22 02:14:31;;;;;;;15.82;4.90;;;;;;;18.48;70.03;101123.91;5110795;28;20081;-55
2022/08/22 02:17:13;;;;;;;19.02;4.80;;;;;;;18.54;70.08;101123.94;5110570;28;20404;-53
2022/08/22 02:19:53;;;;;;;19.83;7.70;;;;;;;18.41;70.45;101121.19;5110195;28;20044;-54
2022/08/22 02:22:46;;;;;;;15.82;5.47;;;;;;;18.42;70.31;101126.34;5110908;28;20054;-53
2022/08/22 02:25:20;;;;;;;18.65;4.82;;;;;;;18.51;70.16;101123.50;5110351;28;20043;-54
2022/08/22 02:28:08;;;;;;;18.02;5.50;;;;;;;18.50;70.40;101125.38;5111072;28;20489;-52
2022/08/22 02:31:00;;;;;;;16.20;5.57;;;;;;;18.44;69.46;101126.16;5109406;28;20040;-53
2022/08/22 02:33:50;;;;;;;14.20;4.97;;;;;;;18.29;70.52;101120.06;5110439;28;20048;-54
2022/08/22 02:36:55;;;;;;;13.75;4.53;;;;;;;18.33;70.95;101124.84;5106503;28;20043;-54
2022/08/22 02:39:50;;;;;;;16.08;4.63;;;;;;;18.25;71.69;101125.00;5106711;28;20040;-53
2022/08/22 02:42:25;;;;;;;14.23;4.65;;;;;;;18.29;71.31;101128.94;5110019;28;20040;-54
2022/08/22 02:45:18;;;;;;;14.30;4.90;;;;;;;18.32;71.70;101112.44;5109759;28;20378;-54
2022/08/22 02:47:56;;;;;;;18.15;5.80;;;;;;;18.30;70.82;101116.34;5109904;28;20051;-54
2022/08/22 02:53:16;;;;;;;15.75;5.20;;;;;;;18.30;70.96;101114.50;5111241;27;20372;-54
2022/08/22 02:56:07;;;;;;;19.17;6.47;;;;;;;18.25;70.51;101119.63;5111311;28;20089;-54
2022/08/22 02:58:55;;;;;;;19.02;5.60;;;;;;;18.22;70.18;101117.31;5109727;28;20047;-52
2022/08/22 03:12:37;;;;;;;15.93;5.50;;;;;;;18.20;71.17;101103.28;5111090;27;20347;-52
2022/08/22 03:15:30;;;;;;;12.65;4.60;;;;;;;18.22;71.90;101107.41;5110334;28;20155;-53
2022/08/22 03:18:05;;;;;;;22.43;5.50;;;;;;;18.20;71.19;101097.91;5109780;28;20476;-54
2022/08/22 03:20:46;;;;;;;17.70;5.20;;;;;;;18.09;72.00;101098.44;5110755;28;20119;-54
2022/08/22 03:26:28;;;;;;;13.93;5.20;;;;;;;18.20;72.56;101097.91;5111066;27;20447;-54
2022/08/22 03:29:05;;;;;;;15.32;6.07;;;;;;;18.14;71.83;101094.13;5110776;28;20066;-53
2022/08/22 03:31:32;;;;;;;19.20;5.30;;;;;;;18.11;72.49;101093.69;5110436;28;20375;-54
2022/08/22 03:34:20;;;;;;;41.22;16.40;;;;;;;18.02;72.52;101087.66;5110980;28;20093;-54
2022/08/22 03:37:16;;;;;;;16.10;5.22;;;;;;;18.11;72.18;101097.22;5111210;28;20050;-54
2022/08/22 03:39:51;;;;;;;15.70;5.10;;;;;;;18.15;71.83;101094.97;5111330;28;20048;-54
2022/08/22 03:42:52;;;;;;;15.40;4.90;;;;;;;18.21;72.27;101089.66;5107671;28;20503;-54
2022/08/22 03:45:59;;;;;;;17.35;5.15;;;;;;;18.19;72.21;101085.50;5110749;28;20040;-55
2022/08/22 03:51:58;;;;;;;16.08;5.50;;;;;;;18.18;72.40;101075.78;5090902;28;20344;-53
2022/08/22 04:03:45;;;;;;;18.17;5.75;;;;;;;18.02;73.55;101083.09;5111071;27;20884;-54
2022/08/22 04:06:48;;;;;;;14.47;5.97;;;;;;;18.01;73.49;101080.63;5111015;28;20443;-56
2022/08/22 04:09:43;;;;;;;15.60;5.53;;;;;;;18.05;73.62;101078.38;5110504;28;20101;-54
2022/08/22 04:12:41;;;;;;;18.55;6.10;;;;;;;18.11;73.53;101080.28;5110793;28;20036;-53
2022/08/22 04:15:49;;;;;;;15.25;5.50;;;;;;;18.13;73.48;101080.91;5110882;28;20059;-54
2022/08/22 04:18:46;;;;;;;13.98;5.40;;;;;;;18.07;73.72;101087.06;5110537;28;20131;-54
2022/08/22 04:21:53;;;;;;;18.75;5.72;;;;;;;18.02;74.08;101076.91;5110572;28;20040;-55
2022/08/22 04:24:49;;;;;;;14.30;5.35;;;;;;;18.08;74.13;101080.66;4982520;28;20040;-54
2022/08/22 04:27:36;;;;;;;19.27;5.68;;;;;;;18.10;73.99;101082.16;5110642;28;20405;-54
2022/08/22 04:30:11;;;;;;;20.35;5.75;;;;;;;18.09;74.38;101083.16;5110472;28;20044;-56
2022/08/22 04:32:45;;;;;;;16.92;5.85;;;;;;;18.08;74.37;101086.88;5109345;28;20460;-54
2022/08/22 04:35:27;;;;;;;20.42;5.40;;;;;;;18.06;74.35;101082.72;5110094;28;20537;-57
2022/08/22 04:38:01;;;;;;;15.38;5.30;;;;;;;18.07;74.33;101085.22;5110402;28;20044;-55
2022/08/22 04:40:38;;;;;;;17.55;5.55;;;;;;;18.12;74.41;101084.59;5110342;28;20507;-54
2022/08/22 04:43:13;;;;;;;17.85;5.45;;;;;;;18.03;74.90;101087.44;5110378;28;20039;-54
2022/08/22 04:45:49;;;;;;;18.25;6.32;;;;;;;18.07;75.20;101085.22;5110487;28;20040;-55
2022/08/22 04:48:29;;;;;;;19.17;5.90;;;;;;;18.03;75.57;101092.81;5110483;28;20044;-54
2022/08/22 04:51:05;;;;;;;22.73;7.43;;;;;;;18.00;75.60;101081.66;5110118;28;20048;-54
2022/08/22 04:54:01;;;;;;;15.13;6.40;;;;;;;18.01;75.29;101084.13;5110005;28;20032;-54
2022/08/22 04:57:07;;;;;;;18.45;6.70;;;;;;;18.06;75.81;101083.53;5106461;28;20386;-56
2022/08/22 04:59:34;;;;;;;20.35;5.85;;;;;;;18.05;75.94;101087.25;5109688;28;20047;-54
2022/08/22 05:02:05;;;;;;;20.60;6.57;;;;;;;18.07;75.54;101090.56;5109564;28;20445;-56
2022/08/22 05:04:44;;;;;;;18.92;5.53;;;;;;;18.14;76.02;101096.00;5109756;28;20051;-55
2022/08/22 05:07:18;;;;;;;26.33;6.13;;;;;;;18.13;75.34;101094.34;5109755;28;20048;-53
2022/08/22 05:09:52;;;;;;;15.30;5.70;;;;;;;18.12;75.72;101098.03;5109686;28;20040;-54
2022/08/22 05:12:30;;;;;;;20.77;5.70;;;;;;;18.15;75.52;101105.69;5109182;28;20482;-55
2022/08/22 05:15:04;;;;;;;18.08;6.22;;;;;;;18.07;76.00;101103.19;5096429;28;20044;-55
2022/08/22 05:17:32;;;;;;;15.85;5.75;;;;;;;18.11;76.43;101102.56;5096209;28;20115;-54
2022/08/22 05:20:06;;;;;;;19.73;6.25;;;;;;;18.16;76.65;101099.31;5096053;28;20078;-55
2022/08/22 05:22:46;;;;;;;22.50;6.88;;;;;;;18.06;77.25;101096.97;5014989;28;20471;-56
2022/08/22 05:25:19;;;;;;;19.60;6.38;;;;;;;18.11;77.05;101096.38;5096123;28;20048;-53
2022/08/22 05:27:51;;;;;;;18.88;6.40;;;;;;;18.17;77.00;101099.13;5095656;28;20043;-54
2022/08/22 05:30:23;;;;;;;21.58;7.00;;;;;;;18.27;77.24;101098.78;5095226;28;20222;-54
2022/08/22 05:33:25;;;;;;;18.98;7.00;;;;;;;18.28;76.86;101096.91;5095732;28;20123;-54
2022/08/22 05:36:00;;;;;;;25.75;7.40;;;;;;;18.31;76.33;101101.91;5095554;28;20048;-54
2022/08/22 05:38:31;;;;;;;21.55;6.65;;;;;;;18.24;76.55;101107.22;5095469;28;20051;-53
2022/08/22 05:41:05;;;;;;;18.70;7.28;;;;;;;18.19;76.54;101107.81;5082838;28;20371;-53
2022/08/22 05:43:37;;;;;;;24.38;7.35;;;;;;;18.22;76.22;101112.78;5095080;28;20043;-54
2022/08/22 05:46:08;;;;;;;16.25;6.40;;;;;;;18.24;76.64;101109.91;5095432;28;20050;-54
2022/08/22 05:48:42;;;;;;;18.88;7.22;;;;;;;18.35;76.93;101108.53;5094483;28;20409;-53
2022/08/22 05:51:24;;;;;;;22.98;7.30;;;;;;;18.37;76.64;101111.84;5094668;28;20036;-52
2022/08/22 05:54:05;;;;;;;25.10;7.68;;;;;;;18.42;76.55;101107.53;5093223;28;20428;-54
2022/08/22 05:56:39;;;;;;;23.80;7.45;;;;;;;18.49;75.60;101114.81;5091646;28;20044;-54
2022/08/22 05:59:20;;;;;;;20.70;6.93;;;;;;;18.55;75.80;101111.34;5094686;28;20048;-54
2022/08/22 06:01:59;;;;;;;22.98;6.97;;;;;;;18.68;75.93;101115.97;5091753;28;20036;-54
2022/08/22 06:04:37;;;;;;;26.77;7.38;;;;;;;18.72;75.73;101118.06;5094423;28;20067;-54
2022/08/22 06:07:13;;;;;;;23.60;7.70;;;;;;;18.66;75.59;101118.84;5095092;28;20094;-53
2022/08/22 06:10:18;;;;;;;21.73;7.40;;;;;;;18.68;75.76;101113.28;5094733;28;20079;-55
2022/08/22 06:15:34;;;;;;;23.35;7.78;;;;;;;18.90;75.14;101117.56;5090588;28;20903;-53
2022/08/22 06:18:06;;;;;;;25.30;7.60;;;;;;;18.95;74.53;101125.00;5089246;28;20045;-53
2022/08/22 06:20:44;;;;;;;18.77;7.07;;;;;;;19.02;74.70;101127.75;5090113;28;20045;-53
2022/08/22 06:23:16;;;;;;;21.02;7.50;;;;;;;19.05;74.61;101135.41;4973259;28;20052;-54
2022/08/22 06:25:46;;;;;;;22.35;7.82;;;;;;;19.09;74.57;101142.88;5090405;28;20047;-53
2022/08/22 06:28:20;;;;;;;21.83;7.45;;;;;;;19.12;73.87;101138.97;5090792;28;20095;-54
2022/08/22 06:30:51;;;;;;;23.00;7.43;;;;;;;19.10;73.11;101136.47;5089685;28;20044;-54
2022/08/22 06:33:25;;;;;;;25.52;8.00;;;;;;;19.07;73.00;101139.56;5090233;28;20072;-55
2022/08/22 06:36:31;;;;;;;27.35;7.78;;;;;;;19.11;72.77;101130.03;5090447;28;20040;-53
2022/08/22 06:39:24;;;;;;;25.50;8.40;;;;;;;18.96;73.21;101135.56;5089912;28;20051;-54
2022/08/22 06:44:30;;;;;;;22.58;7.82;;;;;;;19.22;73.05;101134.00;5110738;27;20380;-54
2022/08/22 06:47:00;;;;;;;28.27;8.43;;;;;;;19.29;73.24;101128.66;5111066;28;20071;-54
2022/08/22 06:49:29;;;;;;;27.80;8.02;;;;;;;19.33;72.60;101135.28;5110913;28;20188;-54
2022/08/22 06:52:00;;;;;;;26.88;8.55;;;;;;;19.33;72.55;101136.13;5110559;28;20451;-55
2022/08/22 06:54:32;;;;;;;19.65;8.43;;;;;;;19.44;71.44;101134.69;5110919;28;20440;-55
2022/08/22 06:57:02;;;;;;;19.73;8.00;;;;;;;19.53;71.30;101138.84;5110937;28;20040;-53
2022/08/22 06:59:34;;;;;;;30.20;9.93;;;;;;;19.59;71.18;101133.69;5110670;28;20051;-55
2022/08/22 07:02:14;;;;;;;28.08;9.18;;;;;;;19.54;70.46;101140.53;5110920;28;20058;-54
2022/08/22 07:04:41;;;;;;;23.15;8.50;;;;;;;19.66;71.09;101137.22;5110241;28;20109;-55
2022/08/22 07:07:08;;;;;;;27.50;7.90;;;;;;;19.74;70.53;101126.31;5110622;28;20473;-55
2022/08/22 07:09:39;;;;;;;29.55;8.50;;;;;;;19.80;70.19;101121.97;5106934;28;20066;-54
2022/08/22 07:12:15;;;;;;;23.25;8.23;;;;;;;19.90;70.32;101134.00;5110650;28;20071;-53
2022/08/22 07:14:46;;;;;;;27.95;8.10;;;;;;;20.02;70.35;101126.09;5110504;28;20050;-53
2022/08/22 07:17:25;;;;;;;20.20;8.10;;;;;;;20.08;67.88;101125.28;5110529;28;20043;-54
2022/08/22 07:20:32;;;;;;;25.92;8.13;;;;;;;20.20;66.68;101130.88;5110423;28;20283;-54
2022/08/22 07:23:05;;;;;;;26.50;7.68;;;;;;;20.45;66.53;101124.84;4980483;28;20973;-54
2022/08/22 07:25:45;;;;;;;24.25;8.25;;;;;;;20.58;65.84;101124.00;5110720;28;20050;-54
2022/08/22 07:28:25;;;;;;;20.55;7.30;;;;;;;20.82;65.21;101125.19;5110260;28;20043;-55
2022/08/22 07:31:31;;;;;;;32.10;7.80;;;;;;;20.98;64.71;101129.28;5110474;28;20048;-53
2022/08/22 07:34:16;;;;;;;28.52;8.85;;;;;;;21.14;64.41;101131.50;5109325;28;20047;-54
2022/08/22 07:36:58;;;;;;;33.13;8.55;;;;;;;21.33;63.72;101129.72;5110107;28;20493;-54
2022/08/22 07:39:39;;;;;;;28.73;8.05;;;;;;;21.42;62.93;101124.91;5110338;28;20106;-55
2022/08/22 07:42:15;;;;;;;30.02;8.02;;;;;;;21.52;61.71;101132.56;5109772;28;20051;-54
2022/08/22 07:45:10;;;;;;;23.25;7.82;;;;;;;21.66;63.11;101134.94;5109860;28;20047;-53
2022/08/22 07:48:04;;;;;;;21.38;6.53;;;;;;;21.90;59.58;101132.47;5109682;28;20039;-58
2022/08/22 07:50:38;;;;;;;24.35;6.95;;;;;;;21.97;60.00;101141.38;5109654;28;20047;-54
2022/08/22 07:53:16;;;;;;;23.45;6.60;;;;;;;22.21;60.72;101141.59;5109925;28;20089;-54
2022/08/22 07:55:44;;;;;;;19.85;6.32;;;;;;;22.23;58.40;101139.50;5096854;28;20580;-54
2022/08/22 07:58:14;;;;;;;19.73;4.90;;;;;;;22.32;57.26;101135.50;5095918;28;20043;-54
2022/08/22 08:00:43;;;;;;;19.65;5.57;;;;;;;22.38;57.31;101137.31;5096410;28;20040;-54
2022/08/22 08:03:11;;;;;;;32.95;7.05;;;;;;;22.40;57.90;101140.59;5095845;28;20109;-55
2022/08/22 08:05:41;;;;;;;23.77;5.85;;;;;;;22.45;56.69;101134.53;5092132;28;20473;-54
2022/08/22 08:08:23;;;;;;;21.48;5.30;;;;;;;22.49;57.21;101130.34;5095785;28;20361;-55
2022/08/22 08:10:53;;;;;;;21.98;5.80;;;;;;;22.50;57.74;101123.03;5092924;28;20215;-55
2022/08/22 08:13:27;;;;;;;16.77;6.37;;;;;;;22.61;57.92;101120.44;5096091;28;20047;-54
2022/08/22 08:15:54;;;;;;;31.05;6.40;;;;;;;22.68;57.69;101123.06;5096168;28;20099;-54
2022/08/22 08:18:25;;;;;;;21.80;5.53;;;;;;;22.66;57.05;101119.75;5095937;28;20097;-54
2022/08/22 08:20:58;;;;;;;24.73;6.20;;;;;;;22.66;57.31;101111.63;5095645;28;20400;-54
2022/08/22 08:23:29;;;;;;;20.35;5.80;;;;;;;22.62;57.30;101110.44;4968365;28;20074;-53
2022/08/22 08:26:18;;;;;;;17.23;4.90;;;;;;;22.66;54.64;101110.81;5095651;28;20044;-54
2022/08/22 08:28:49;;;;;;;20.30;6.25;;;;;;;22.73;55.66;101109.69;5094523;28;20085;-54
2022/08/22 08:34:05;;;;;;;27.83;7.53;;;;;;;22.98;54.80;101106.06;5111159;27;20797;-53
2022/08/22 08:36:38;;;;;;;16.95;5.47;;;;;;;23.11;53.74;101105.91;5110930;28;20473;-54
2022/08/22 08:39:30;;;;;;;22.35;4.90;;;;;;;23.12;51.60;101099.47;5111247;28;20043;-55
2022/08/22 08:42:25;;;;;;;25.67;6.47;;;;;;;23.37;51.06;101102.00;5110779;28;20044;-54
2022/08/22 08:47:50;;;;;;;14.05;4.13;;;;;;;23.66;49.71;101098.69;5131475;27;20398;-53
2022/08/22 08:50:57;;;;;;;15.90;4.40;;;;;;;23.62;48.87;101092.09;5111052;28;20040;-56
2022/08/22 08:56:55;;;;;;;17.65;4.45;;;;;;;23.99;50.19;101083.78;5110897;27;20682;-56
2022/08/22 08:59:34;;;;;;;19.55;4.70;;;;;;;24.17;50.00;101078.25;5110054;28;20048;-54
2022/08/22 09:02:27;;;;;;;16.90;4.38;;;;;;;24.26;49.91;101073.31;5110808;28;20443;-54
2022/08/22 09:05:33;;;;;;;17.42;4.75;;;;;;;24.46;49.42;101078.34;5110538;28;20474;-54
2022/08/22 09:14:04;;;;;;;16.08;4.53;;;;;;;24.68;48.31;101068.53;5108022;27;20678;-54
2022/08/22 09:19:49;;;;;;;17.17;3.63;;;;;;;24.99;44.12;101073.75;5110813;27;20804;-54
2022/08/22 09:25:48;;;;;;;18.02;3.28;;;;;;;25.16;41.39;101063.78;5131603;27;20131;-54
2022/08/22 09:28:27;;;;;;;15.32;3.22;;;;;;;25.59;41.39;101065.06;5110822;28;20390;-54
2022/08/22 09:31:34;;;;;;;15.45;2.97;;;;;;;25.98;39.59;101065.19;5110610;28;20047;-54
2022/08/22 09:34:36;;;;;;;11.73;2.53;;;;;;;26.35;37.68;101058.34;5098637;28;20052;-55
2022/08/22 09:37:28;;;;;;;14.73;2.92;;;;;;;26.61;37.19;101054.91;5110841;28;20047;-55
2022/08/22 09:40:06;;;;;;;;;;;;;;;26.92;36.88;101062.59;5111472;28;20044;-54
2022/08/22 09:42:57;;;;;;;9.80;2.40;;;;;;;26.93;34.74;101062.31;5110443;28;19958;-54
2022/08/22 09:45:53;;;;;;;16.33;3.17;;;;;;;27.58;35.33;101052.34;5110948;28;20040;-54
2022/08/22 09:54:22;;;;;;;14.45;3.10;;;;;;;28.14;34.45;101057.41;5111227;27;20354;-54
2022/08/22 09:57:29;;;;;;;10.75;2.60;;;;;;;27.62;33.57;101055.38;5111048;28;20048;-54
2022/08/22 10:00:16;;;;;;;14.93;3.20;;;;;;;27.31;35.17;101052.41;5110720;28;20130;-54
2022/08/22 10:03:13;;;;;;;11.15;2.70;;;;;;;27.07;34.51;101057.31;5111099;28;20086;-54
2022/08/22 10:05:53;;;;;;;11.18;2.65;;;;;;;27.04;35.21;101057.81;5110154;28;20054;-54
2022/08/22 10:08:47;;;;;;;10.60;3.00;;;;;;;26.89;35.50;101050.31;5111108;28;20047;-53
2022/08/22 10:11:33;;;;;;;13.88;3.10;;;;;;;27.29;35.38;101051.84;5109358;28;20044;-53
2022/08/22 10:14:07;;;;;;;12.30;2.80;;;;;;;26.65;35.44;101051.66;5110624;28;20498;-54
2022/08/22 10:17:02;;;;;;;10.88;3.45;;;;;;;27.18;36.09;101042.72;5110669;28;20052;-53
2022/08/22 10:19:52;;;;;;;9.88;2.58;;;;;;;27.17;35.55;101051.13;5110171;28;20570;-54
2022/08/22 10:22:49;;;;;;;12.07;2.93;;;;;;;27.33;35.24;101052.13;5110457;28;20043;-55
2022/08/22 10:25:30;;;;;;;11.68;2.67;;;;;;;27.58;34.94;101048.81;5053491;28;20097;-55
2022/08/22 10:28:13;;;;;;;11.60;2.55;;;;;;;27.82;34.52;101048.44;5110155;28;20048;-55
2022/08/22 10:30:50;;;;;;;16.50;2.75;;;;;;;28.01;32.85;101046.94;5110507;28;20093;-55
2022/08/22 10:33:32;;;;;;;14.23;2.70;;;;;;;27.46;33.92;101043.53;5110013;28;20090;-55
2022/08/22 10:36:11;;;;;;;11.57;3.30;;;;;;;27.62;34.73;101049.13;5110113;28;20512;-55
2022/08/22 10:38:46;;;;;;;9.60;2.72;;;;;;;27.64;34.24;101042.31;5110207;28;20398;-54
2022/08/22 10:41:36;;;;;;;14.77;2.88;;;;;;;27.51;34.43;101045.50;5110379;28;20043;-55
2022/08/22 10:44:28;;;;;;;10.98;2.97;;;;;;;27.12;34.48;101040.19;5110347;28;20040;-56
2022/08/22 10:47:07;;;;;;;15.18;3.00;;;;;;;26.89;34.98;101041.34;5110111;28;20126;-55
2022/08/22 10:49:45;;;;;;;15.82;2.88;;;;;;;26.90;34.80;101035.63;5110389;28;20048;-55
2022/08/22 10:52:21;;;;;;;15.90;3.30;;;;;;;26.81;35.66;101040.72;5109563;28;20130;-56
2022/08/22 10:55:04;;;;;;;10.57;2.92;;;;;;;26.80;36.56;101033.63;5110214;28;20059;-56
2022/08/22 10:57:48;;;;;;;10.73;2.80;;;;;;;27.02;35.72;101029.22;5110028;28;20407;-55
2022/08/22 11:03:33;;;;;;;12.07;3.33;;;;;;;26.74;36.75;101020.19;5070421;28;20375;-55
2022/08/22 11:06:05;;;;;;;12.23;3.50;;;;;;;26.81;36.92;101020.81;5069715;28;20437;-55
2022/08/22 11:09:12;;;;;;;14.50;4.50;;;;;;;26.98;35.65;101013.41;5070275;28;20514;-55
2022/08/22 11:11:47;;;;;;;9.63;3.28;;;;;;;27.17;36.13;101011.09;5070177;28;20128;-55
2022/08/22 11:14:38;;;;;;;15.38;3.47;;;;;;;27.01;35.96;101014.78;5070643;28;20040;-54
2022/08/22 11:20:10;;;;;;;19.08;4.07;;;;;;;27.16;35.66;101006.75;5108124;27;20836;-54
2022/08/22 11:23:05;;;;;;;14.68;3.50;;;;;;;27.06;35.74;101009.38;5092871;28;20382;-55
2022/08/22 11:26:01;;;;;;;13.48;3.03;;;;;;;27.10;35.49;101007.78;5095813;28;20035;-55
2022/08/22 11:28:51;;;;;;;15.52;3.00;;;;;;;27.01;35.80;100998.44;5110693;28;20062;-55
2022/08/22 11:31:31;;;;;;;12.63;2.97;;;;;;;26.99;35.98;101004.13;5110496;28;20048;-55
2022/08/22 11:37:11;;;;;;;14.85;3.10;;;;;;;27.24;35.24;100993.75;5111271;27;20388;-54
2022/08/22 11:40:00;;;;;;;17.02;3.70;;;;;;;27.06;36.05;100995.78;5111272;28;20050;-56
2022/08/22 11:42:36;;;;;;;14.15;3.30;;;;;;;27.14;36.32;100998.03;5111324;28;20044;-55
2022/08/22 11:45:05;;;;;;;15.43;3.20;;;;;;;27.46;36.22;100989.03;5111155;28;20047;-55
2022/08/22 11:47:41;;;;;;;13.93;3.78;;;;;;;27.42;36.63;100996.09;5110932;28;20043;-55
2022/08/22 11:50:17;;;;;;;14.20;3.00;;;;;;;27.39;35.54;100994.72;5110842;28;20401;-55
2022/08/22 11:56:17;;;;;;;13.25;2.97;;;;;;;27.54;35.14;100985.00;5111325;27;20351;-52
2022/08/22 11:59:09;;;;;;;14.93;4.05;;;;;;;27.66;35.01;100980.19;5110822;28;20140;-55
2022/08/22 12:01:43;;;;;;;11.43;3.40;;;;;;;27.84;36.84;100989.84;5109611;28;20047;-56
2022/08/22 12:04:19;;;;;;;15.07;3.30;;;;;;;27.89;35.15;100989.88;5110213;28;20067;-55
2022/08/22 12:06:54;;;;;;;10.80;3.00;;;;;;;28.27;33.79;100989.81;5111174;28;20048;-56
2022/08/22 12:09:49;;;;;;;14.48;3.22;;;;;;;27.80;35.17;100991.47;5110639;28;20050;-56
2022/08/22 12:12:45;;;;;;;15.25;3.70;;;;;;;27.84;35.25;100987.13;5110763;28;20044;-56
2022/08/22 12:15:19;;;;;;;14.57;2.97;;;;;;;27.76;35.91;100982.16;5110506;28;20052;-56
2022/08/22 12:20:52;;;;;;;13.48;3.50;;;;;;;27.84;35.92;100973.50;5110920;27;20136;-56
2022/08/22 12:26:52;;;;;;;12.38;2.90;;;;;;;27.88;34.14;100976.50;5128204;27;20206;-56
2022/08/22 12:29:33;;;;;;;9.85;3.30;;;;;;;27.83;34.22;100971.03;5110738;28;20131;-56
2022/08/22 12:32:34;;;;;;;11.85;2.90;;;;;;;27.69;34.48;100970.69;5110327;28;20435;-53
2022/08/22 12:38:47;;;;;;;14.00;4.07;;;;;;;27.95;35.52;100977.94;5110097;27;20398;-54
2022/08/22 12:44:34;;;;;;;15.60;3.83;;;;;;;28.69;32.88;100965.16;5111169;27;20380;-54
2022/08/22 12:47:22;;;;;;;15.50;3.38;;;;;;;28.64;32.17;100958.88;5110555;28;20388;-55
2022/08/22 12:50:18;;;;;;;23.02;3.70;;;;;;;28.11;33.13;100956.22;5110977;28;20044;-55
2022/08/22 12:53:24;;;;;;;16.60;3.47;;;;;;;27.88;34.46;100952.78;5110623;28;20426;-55
2022/08/22 12:59:01;;;;;;;13.23;3.42;;;;;;;28.43;32.09;100953.31;5152016;27;20392;-55
2022/08/22 13:01:35;;;;;;;13.93;3.50;;;;;;;28.24;33.52;100952.19;5152064;27;20045;-55
2022/08/22 13:04:11;;;;;;;12.18;3.22;;;;;;;28.28;33.16;100953.28;5151724;27;20403;-55
2022/08/22 13:06:47;;;;;;;13.60;3.33;;;;;;;28.58;33.23;100946.28;5151763;27;20035;-55
2022/08/22 13:09:21;;;;;;;12.77;3.22;;;;;;;28.78;33.15;100946.34;5151860;27;20046;-55
2022/08/22 13:11:52;;;;;;;12.68;3.35;;;;;;;28.98;33.33;100945.53;5152120;27;20049;-55
2022/08/22 13:14:23;;;;;;;13.98;3.38;;;;;;;29.38;32.81;100949.38;5152092;27;20104;-54
2022/08/22 13:16:55;;;;;;;14.02;3.33;;;;;;;29.52;31.51;100938.66;5151648;27;20043;-54
2022/08/22 13:19:27;;;;;;;15.55;3.53;;;;;;;29.38;30.83;100938.44;5151733;27;20407;-55
2022/08/22 13:22:02;;;;;;;16.60;3.55;;;;;;;29.35;31.31;100941.72;5151726;27;20385;-56
2022/08/22 13:24:43;;;;;;;14.95;4.00;;;;;;;29.54;30.77;100936.47;5148228;27;20035;-56
2022/08/22 13:27:19;;;;;;;13.20;3.95;;;;;;;29.89;31.57;100943.00;5151712;27;20031;-56
2022/08/22 13:29:56;;;;;;;14.00;3.80;;;;;;;29.90;30.88;100939.13;5151881;27;20515;-56
2022/08/22 13:32:47;;;;;;;13.30;4.20;;;;;;;29.86;29.99;100938.06;5151898;27;20067;-56
2022/08/22 13:35:25;;;;;;;12.75;3.40;;;;;;;29.49;30.17;100939.25;5151360;27;20046;-55
2022/08/22 13:38:03;;;;;;;11.55;3.80;;;;;;;29.66;31.32;100931.53;5151779;27;20035;-55
2022/08/22 13:40:31;;;;;;;12.45;4.00;;;;;;;29.68;32.46;100931.25;5151724;27;20039;-54
2022/08/22 13:43:07;;;;;;;12.82;4.20;;;;;;;29.49;30.29;100928.31;5151602;27;20039;-55
2022/08/22 13:45:35;;;;;;;15.77;3.95;;;;;;;29.07;30.40;100930.25;5151108;27;20131;-56
2022/08/22 13:48:09;;;;;;;13.80;3.50;;;;;;;29.23;31.38;100928.31;5151465;27;20043;-56
2022/08/22 13:51:00;;;;;;;13.10;3.40;;;;;;;29.41;30.97;100926.13;5151168;27;20039;-55
2022/08/22 13:53:40;;;;;;;13.37;3.67;;;;;;;29.23;30.75;100924.78;5151413;27;20042;-54
2022/08/22 13:56:18;;;;;;;15.57;3.65;;;;;;;28.87;30.95;100925.59;5151146;27;20042;-55
2022/08/22 13:58:54;;;;;;;10.48;3.40;;;;;;;28.97;30.97;100930.22;5151167;27;20049;-54
2022/08/22 14:01:49;;;;;;;18.95;4.18;;;;;;;29.30;30.99;100919.84;5151263;27;20086;-55
2022/08/22 14:04:29;;;;;;;14.02;3.70;;;;;;;30.35;30.04;100920.91;5150437;27;20122;-56
2022/08/22 14:07:19;;;;;;;12.67;3.60;;;;;;;30.95;28.17;100925.47;5151044;27;20049;-56
2022/08/22 14:09:55;;;;;;;13.38;3.70;;;;;;;31.29;27.12;100924.59;5137944;27;20043;-55
2022/08/22 14:12:26;;;;;;;14.98;4.00;;;;;;;30.95;27.59;100922.72;5137237;27;20047;-55
2022/08/22 14:15:00;;;;;;;12.88;3.53;;;;;;;31.76;27.44;100914.78;5136941;27;20047;-56